Time;durP1;ratioP1;P1;durP2;ratioP2;P2;SDS_P1;SDS_P2;PMS_P1;PMS_P2;Temp;Humidity;BMP_temperature;BMP_pressure;BME280_temperature;BME280_humidity;BME280_pressure;Samples;Min_cycle;Max_cycle;Signal;HPM_P1;HPM_P2
2022/11/22 00:01:03;;;;;;;39.80;21.52;;;3.80;99.90;;;;;;5052429;28;20185;-77
2022/11/22 00:03:28;;;;;;;41.35;22.58;;;3.80;99.90;;;;;;5072800;28;20197;-77
2022/11/22 00:05:54;;;;;;;42.63;21.77;;;3.80;99.90;;;;;;5069578;28;20280;-76
2022/11/22 00:08:20;;;;;;;38.85;21.20;;;3.90;99.90;;;;;;5088303;28;20199;-76
2022/11/22 00:10:48;;;;;;;38.97;20.70;;;3.80;99.90;;;;;;5087675;28;20182;-76
2022/11/22 00:13:15;;;;;;;36.63;20.45;;;3.80;99.90;;;;;;5070414;28;20217;-76
2022/11/22 00:15:41;;;;;;;38.83;21.50;;;3.80;99.90;;;;;;5056014;28;20194;-80
2022/11/22 00:18:06;;;;;;;38.03;21.15;;;3.80;99.90;;;;;;5062350;28;20194;-76
2022/11/22 00:20:33;;;;;;;37.10;20.70;;;3.80;99.90;;;;;;5074201;28;20528;-76
2022/11/22 00:22:59;;;;;;;41.67;22.42;;;3.80;99.90;;;;;;5065870;28;20210;-78
2022/11/22 00:25:25;;;;;;;40.92;21.98;;;3.80;99.90;;;;;;5080762;28;20942;-76
2022/11/22 00:27:51;;;;;;;45.25;23.00;;;3.70;99.90;;;;;;5070921;28;20174;-79
2022/11/22 00:30:16;;;;;;;36.70;20.48;;;3.70;99.90;;;;;;5071952;28;20543;-76
2022/11/22 00:32:42;;;;;;;40.95;20.60;;;3.70;99.90;;;;;;5065351;28;20688;-77
2022/11/22 00:35:08;;;;;;;35.10;19.13;;;3.70;99.90;;;;;;5058417;28;20198;-76
2022/11/22 00:37:34;;;;;;;39.58;22.42;;;3.60;99.90;;;;;;5065551;28;20192;-76
2022/11/22 00:40:01;;;;;;;40.15;22.30;;;3.60;99.90;;;;;;5073121;28;20179;-74
2022/11/22 00:42:26;;;;;;;41.33;21.92;;;3.50;99.90;;;;;;5070199;28;20193;-75
2022/11/22 00:44:52;;;;;;;35.80;20.42;;;3.60;99.90;;;;;;5058449;28;20183;-77
2022/11/22 00:47:18;;;;;;;34.72;19.88;;;3.60;99.90;;;;;;5067203;28;20878;-76
2022/11/22 00:49:44;;;;;;;36.42;20.67;;;3.50;99.90;;;;;;5063379;28;20174;-78
2022/11/22 00:52:09;;;;;;;40.22;22.08;;;3.60;99.90;;;;;;5071449;28;20291;-75
2022/11/22 00:54:35;;;;;;;38.88;21.30;;;3.50;99.90;;;;;;5068567;28;20547;-74
2022/11/22 00:57:01;;;;;;;38.40;20.55;;;3.50;99.90;;;;;;5070175;28;20186;-76
2022/11/22 00:59:26;;;;;;;37.03;20.83;;;3.50;99.90;;;;;;5072270;28;20609;-75
2022/11/22 01:01:52;;;;;;;37.47;19.80;;;3.50;99.90;;;;;;5072317;28;20186;-77
2022/11/22 01:04:18;;;;;;;41.17;21.23;;;3.50;99.90;;;;;;5062734;28;20191;-77
2022/11/22 01:06:43;;;;;;;38.80;21.02;;;3.60;99.90;;;;;;5061208;28;20206;-77
2022/11/22 01:09:15;;;;;;;36.10;19.98;;;3.60;99.90;;;;;;5061465;28;20178;-77
2022/11/22 01:11:43;;;;;;;40.05;22.65;;;3.60;99.90;;;;;;5070901;28;20178;-76
2022/11/22 01:14:08;;;;;;;36.88;21.10;;;3.60;99.90;;;;;;5066387;28;20603;-77
2022/11/22 01:16:34;;;;;;;36.90;21.60;;;3.60;99.90;;;;;;5069579;28;20179;-76
2022/11/22 01:19:00;;;;;;;37.40;20.67;;;3.50;99.90;;;;;;5061343;28;20186;-82
2022/11/22 01:21:25;;;;;;;44.25;22.67;;;3.50;99.90;;;;;;5061484;28;20212;-76
2022/11/22 01:23:51;;;;;;;39.45;20.77;;;3.50;99.90;;;;;;5083645;28;20572;-75
2022/11/22 01:26:17;;;;;;;43.40;22.15;;;3.50;99.90;;;;;;5070348;28;20240;-79
2022/11/22 01:28:43;;;;;;;38.67;21.00;;;3.40;99.90;;;;;;5066276;28;20642;-76
2022/11/22 01:31:08;;;;;;;42.65;22.63;;;3.50;99.90;;;;;;5062493;28;20183;-75
2022/11/22 01:33:34;;;;;;;39.40;21.90;;;3.50;99.90;;;;;;5070736;28;20206;-74
2022/11/22 01:36:00;;;;;;;43.28;22.58;;;3.50;99.90;;;;;;5069913;28;20270;-77
2022/11/22 01:38:26;;;;;;;42.30;22.48;;;3.50;99.90;;;;;;5087925;28;20198;-76
2022/11/22 01:40:52;;;;;;;40.05;21.13;;;3.50;99.90;;;;;;5055259;28;20187;-75
2022/11/22 01:43:20;;;;;;;41.05;22.20;;;3.40;99.90;;;;;;5063490;28;20194;-76
2022/11/22 01:45:53;;;;;;;45.53;22.98;;;3.50;99.90;;;;;;5075528;28;20174;-75
2022/11/22 01:48:30;;;;;;;42.22;22.67;;;3.50;99.90;;;;;;5082615;28;20189;-76
2022/11/22 01:51:05;;;;;;;44.97;23.50;;;3.50;99.90;;;;;;5063087;28;20186;-75
2022/11/22 01:53:35;;;;;;;41.45;21.10;;;3.50;99.90;;;;;;5063041;28;20249;-76
2022/11/22 01:56:03;;;;;;;46.50;23.08;;;3.50;99.90;;;;;;5078706;28;20673;-75
2022/11/22 01:58:32;;;;;;;43.67;23.63;;;3.50;99.90;;;;;;5076417;28;20189;-76
2022/11/22 02:00:59;;;;;;;44.53;22.42;;;3.60;99.90;;;;;;5088755;28;20201;-76
2022/11/22 02:03:27;;;;;;;43.47;22.75;;;3.50;99.90;;;;;;5070471;28;20190;-76
2022/11/22 02:05:55;;;;;;;42.42;21.27;;;3.60;99.90;;;;;;5078214;28;20204;-75
2022/11/22 02:08:42;;;;;;;50.63;25.00;;;3.60;99.90;;;;;;5071588;28;20214;-76
2022/11/22 02:11:11;;;;;;;48.55;24.20;;;3.60;99.90;;;;;;5071301;28;20178;-75
2022/11/22 02:13:40;;;;;;;50.67;25.83;;;3.60;99.90;;;;;;5064432;28;20212;-76
2022/11/22 02:16:06;;;;;;;45.58;24.35;;;3.60;99.90;;;;;;5071487;28;20193;-77
2022/11/22 02:18:36;;;;;;;45.13;23.95;;;3.60;99.90;;;;;;5072795;28;20654;-75
2022/11/22 02:21:04;;;;;;;47.33;25.33;;;3.60;99.90;;;;;;5059982;28;20179;-78
2022/11/22 02:24:16;;;;;;;46.35;23.88;;;3.60;99.90;;;;;;5065033;28;20190;-75
2022/11/22 02:26:42;;;;;;;45.65;24.60;;;3.60;99.90;;;;;;5021735;28;20184;-76
2022/11/22 02:29:07;;;;;;;50.70;25.63;;;3.60;99.90;;;;;;5013455;28;20742;-78
2022/11/22 02:31:38;;;;;;;49.25;25.83;;;3.60;99.90;;;;;;5035357;28;20211;-75
2022/11/22 02:34:04;;;;;;;43.30;22.83;;;3.60;99.90;;;;;;5063332;28;20352;-76
2022/11/22 02:36:35;;;;;;;47.72;25.35;;;3.70;99.90;;;;;;5079163;28;20265;-75
2022/11/22 02:39:01;;;;;;;45.55;25.25;;;3.70;99.90;;;;;;5076648;28;20548;-75
2022/11/22 02:41:27;;;;;;;43.15;24.13;;;3.70;99.90;;;;;;5064091;28;20194;-74
2022/11/22 02:43:52;;;;;;;45.38;25.38;;;3.70;99.90;;;;;;5067771;28;20278;-76
2022/11/22 02:46:20;;;;;;;45.05;25.58;;;3.60;99.90;;;;;;5089068;28;20190;-76
2022/11/22 02:48:47;;;;;;;34.65;18.77;;;3.70;99.90;;;;;;5077284;28;20256;-76
2022/11/22 02:51:15;;;;;;;45.53;25.10;;;3.60;99.90;;;;;;5077121;28;20323;-76
2022/11/22 02:53:47;;;;;;;45.75;25.20;;;3.60;99.90;;;;;;5068605;28;20711;-80
2022/11/22 02:56:13;;;;;;;42.95;25.08;;;3.70;99.90;;;;;;5061382;28;20181;-80
2022/11/22 02:58:39;;;;;;;44.10;24.95;;;3.60;99.90;;;;;;5067344;28;20186;-75
2022/11/22 03:01:04;;;;;;;42.90;24.40;;;3.70;99.90;;;;;;5069814;28;20245;-76
2022/11/22 03:03:31;;;;;;;39.65;23.55;;;3.70;99.90;;;;;;5073603;28;20178;-79
2022/11/22 03:05:57;;;;;;;42.53;23.58;;;3.60;99.90;;;;;;5081907;28;20185;-75
2022/11/22 03:08:22;;;;;;;43.00;24.40;;;3.70;99.90;;;;;;5073042;28;20270;-75
2022/11/22 03:10:48;;;;;;;36.85;18.23;;;3.60;99.90;;;;;;5072000;28;20178;-76
2022/11/22 03:13:14;;;;;;;40.83;24.45;;;3.70;99.90;;;;;;5072129;28;20317;-75
2022/11/22 03:15:40;;;;;;;42.10;23.77;;;3.70;99.90;;;;;;5063553;28;20214;-80
2022/11/22 03:18:05;;;;;;;42.50;24.67;;;3.60;99.90;;;;;;5065322;28;20249;-75
2022/11/22 03:20:32;;;;;;;39.45;21.00;;;3.70;99.90;;;;;;5079353;28;20228;-75
2022/11/22 03:23:01;;;;;;;42.60;23.77;;;3.70;99.90;;;;;;5071932;28;20216;-75
2022/11/22 03:25:26;;;;;;;42.55;25.20;;;3.70;99.90;;;;;;5061553;28;20190;-76
2022/11/22 03:27:53;;;;;;;39.58;22.23;;;3.70;99.90;;;;;;5062453;28;20232;-76
2022/11/22 03:30:19;;;;;;;38.92;22.20;;;3.70;99.90;;;;;;5072204;28;20190;-75
2022/11/22 03:32:45;;;;;;;41.15;21.73;;;3.80;99.90;;;;;;5071230;28;20614;-77
2022/11/22 03:35:11;;;;;;;43.80;25.33;;;3.80;99.90;;;;;;5082213;28;20196;-75
2022/11/22 03:37:37;;;;;;;42.30;23.65;;;3.80;99.90;;;;;;5056833;28;20187;-75
2022/11/22 03:40:04;;;;;;;46.95;23.15;;;3.80;99.90;;;;;;5074118;28;20250;-76
2022/11/22 03:42:30;;;;;;;48.63;23.88;;;3.80;99.90;;;;;;5072084;28;20186;-76
2022/11/22 03:44:55;;;;;;;40.72;23.25;;;3.80;99.90;;;;;;5071479;28;20614;-76
2022/11/22 03:47:24;;;;;;;43.40;24.00;;;3.90;99.90;;;;;;5073248;28;20260;-75
2022/11/22 03:49:49;;;;;;;43.22;23.85;;;3.90;99.90;;;;;;5060092;28;20179;-76
2022/11/22 03:52:15;;;;;;;39.25;23.63;;;3.90;99.90;;;;;;5070775;28;20299;-76
2022/11/22 03:54:41;;;;;;;40.85;22.80;;;3.90;99.90;;;;;;5073258;28;20174;-75
2022/11/22 03:57:06;;;;;;;38.08;22.95;;;3.90;99.90;;;;;;5070927;28;20194;-77
2022/11/22 03:59:32;;;;;;;39.10;22.00;;;3.90;99.90;;;;;;5071331;28;20194;-77
2022/11/22 04:01:58;;;;;;;39.42;22.23;;;4.00;99.90;;;;;;5072362;28;20177;-76
2022/11/22 04:04:24;;;;;;;37.83;22.73;;;4.00;99.90;;;;;;5071621;28;20269;-76
2022/11/22 04:06:49;;;;;;;38.72;21.42;;;4.00;99.90;;;;;;5078798;28;20255;-77
2022/11/22 04:09:15;;;;;;;40.90;21.83;;;4.00;99.90;;;;;;5081972;28;20245;-77
2022/11/22 04:11:41;;;;;;;40.13;22.55;;;3.90;99.90;;;;;;5073545;28;20270;-76
2022/11/22 04:16:57;;;;;;;33.72;19.70;;;4.00;99.90;;;;;;5071198;28;20190;-77
2022/11/22 04:19:22;;;;;;;39.47;22.25;;;4.00;99.90;;;;;;5059655;28;20178;-79
2022/11/22 04:21:48;;;;;;;40.67;22.45;;;4.00;99.90;;;;;;5063512;28;20255;-75
2022/11/22 04:26:58;;;;;;;40.03;21.63;;;4.00;99.90;;;;;;5065034;28;20670;-76
2022/11/22 04:29:24;;;;;;;39.58;22.23;;;4.00;99.90;;;;;;5069855;28;20191;-75
2022/11/22 04:34:35;;;;;;;38.08;20.05;;;4.10;99.90;;;;;;5059619;28;20209;-76
2022/11/22 04:37:01;;;;;;;39.60;22.10;;;4.10;99.90;;;;;;5062161;28;20183;-79
2022/11/22 04:39:28;;;;;;;37.58;20.83;;;4.10;99.90;;;;;;5069823;28;20179;-76
2022/11/22 04:44:40;;;;;;;41.25;22.10;;;4.10;99.90;;;;;;5058664;28;20188;-76
2022/11/22 04:47:11;;;;;;;43.88;21.85;;;4.10;99.90;;;;;;5067925;28;20312;-78
2022/11/22 04:49:37;;;;;;;38.53;21.25;;;4.20;99.90;;;;;;5057652;28;20186;-76
2022/11/22 04:54:47;;;;;;;38.22;21.10;;;4.20;99.90;;;;;;5061640;28;20178;-76
2022/11/22 04:57:13;;;;;;;40.60;20.90;;;4.20;99.90;;;;;;5067973;28;20723;-77
2022/11/22 04:59:39;;;;;;;40.83;21.70;;;4.20;99.90;;;;;;5069723;28;20190;-76
2022/11/22 05:02:04;;;;;;;37.63;21.15;;;4.20;99.90;;;;;;5069693;28;20581;-76
2022/11/22 05:04:30;;;;;;;37.83;20.13;;;4.20;99.90;;;;;;5072921;28;20177;-76
2022/11/22 05:06:56;;;;;;;41.45;21.45;;;4.20;99.90;;;;;;5080515;28;20598;-82
2022/11/22 05:09:22;;;;;;;40.53;22.63;;;4.20;99.90;;;;;;5057668;28;20793;-76
2022/11/22 05:11:48;;;;;;;35.58;20.40;;;4.20;99.90;;;;;;5071235;28;20274;-76
2022/11/22 05:14:14;;;;;;;37.22;21.55;;;4.20;99.90;;;;;;5070168;28;20664;-76
2022/11/22 05:16:40;;;;;;;37.88;21.92;;;4.30;99.90;;;;;;5070596;28;20642;-76
2022/11/22 05:19:06;;;;;;;43.35;21.85;;;4.30;99.90;;;;;;5066822;28;20206;-79
2022/11/22 05:21:34;;;;;;;39.53;21.05;;;4.30;99.90;;;;;;5062755;28;20486;-77
2022/11/22 05:24:00;;;;;;;39.00;21.65;;;4.30;99.90;;;;;;5066553;28;20270;-82
2022/11/22 05:26:32;;;;;;;40.90;21.48;;;4.30;99.90;;;;;;5062857;28;20182;-76
2022/11/22 05:29:01;;;;;;;40.90;22.27;;;4.30;99.90;;;;;;5069401;28;20228;-79
2022/11/22 05:31:27;;;;;;;36.88;20.80;;;4.30;99.90;;;;;;5071080;28;20214;-76
2022/11/22 05:33:54;;;;;;;36.83;21.05;;;4.30;99.90;;;;;;5057209;28;20585;-76
2022/11/22 05:36:22;;;;;;;40.60;20.50;;;4.30;99.90;;;;;;5057113;28;20183;-77
2022/11/22 05:38:48;;;;;;;43.22;21.88;;;4.40;99.90;;;;;;5063324;28;20642;-77
2022/11/22 05:41:15;;;;;;;34.28;20.30;;;4.40;99.90;;;;;;5070869;28;20197;-76
2022/11/22 05:43:41;;;;;;;36.05;21.27;;;4.50;99.90;;;;;;5070936;28;20186;-76
2022/11/22 05:46:13;;;;;;;39.40;21.92;;;4.40;99.90;;;;;;5067823;28;20206;-77
2022/11/22 05:48:41;;;;;;;38.30;21.42;;;4.40;99.90;;;;;;5066054;28;20179;-76
2022/11/22 05:51:09;;;;;;;45.35;21.58;;;4.50;99.90;;;;;;5067622;28;20178;-76
2022/11/22 05:53:36;;;;;;;40.10;20.92;;;4.50;99.90;;;;;;5068372;28;20328;-76
2022/11/22 05:56:09;;;;;;;42.00;22.80;;;4.50;99.90;;;;;;5070966;28;20654;-77
2022/11/22 05:58:35;;;;;;;40.22;22.92;;;4.50;99.90;;;;;;5056888;28;20191;-77
2022/11/22 06:01:06;;;;;;;36.85;22.10;;;4.50;99.90;;;;;;5056575;28;20182;-75
2022/11/22 06:03:32;;;;;;;37.97;21.63;;;4.50;99.90;;;;;;5068090;28;20205;-75
2022/11/22 06:05:58;;;;;;;37.65;22.42;;;4.60;99.90;;;;;;5079249;28;20261;-76
2022/11/22 06:08:24;;;;;;;41.35;23.02;;;4.60;99.90;;;;;;5064033;28;20257;-75
2022/11/22 06:10:50;;;;;;;41.20;23.65;;;4.60;99.90;;;;;;5054509;28;20279;-76
2022/11/22 06:13:16;;;;;;;34.92;21.73;;;4.60;99.90;;;;;;5058555;28;20222;-76
2022/11/22 06:15:41;;;;;;;37.35;22.17;;;4.60;99.90;;;;;;5068280;28;20198;-76
2022/11/22 06:18:07;;;;;;;35.25;21.38;;;4.60;99.90;;;;;;5067983;28;20203;-76
2022/11/22 06:20:33;;;;;;;40.92;22.08;;;4.70;99.90;;;;;;5069383;28;20581;-77
2022/11/22 06:22:58;;;;;;;40.33;21.67;;;4.70;99.90;;;;;;5065009;28;20197;-82
2022/11/22 06:25:24;;;;;;;37.22;21.42;;;4.70;99.90;;;;;;5057028;28;20189;-77
2022/11/22 06:27:50;;;;;;;37.30;22.42;;;4.70;99.90;;;;;;5070285;28;20475;-77
2022/11/22 06:30:16;;;;;;;39.70;22.30;;;4.70;99.90;;;;;;5070590;28;20189;-76
2022/11/22 06:32:42;;;;;;;41.30;23.67;;;4.70;99.90;;;;;;5064309;28;20659;-77
2022/11/22 06:35:08;;;;;;;39.75;22.73;;;4.70;99.90;;;;;;5063897;28;20198;-77
2022/11/22 06:37:34;;;;;;;44.80;23.15;;;4.70;99.90;;;;;;5044594;28;20568;-77
2022/11/22 06:39:59;;;;;;;48.35;23.52;;;4.70;99.90;;;;;;5066179;28;20190;-78
2022/11/22 06:42:25;;;;;;;38.25;22.13;;;4.70;99.90;;;;;;5063975;28;20190;-77
2022/11/22 06:44:51;;;;;;;42.90;22.83;;;4.80;99.90;;;;;;5073920;28;20198;-74
2022/11/22 06:47:17;;;;;;;41.63;22.50;;;4.80;99.90;;;;;;5064344;28;20189;-76
2022/11/22 06:49:44;;;;;;;39.47;22.67;;;4.80;99.90;;;;;;5072917;28;20182;-75
2022/11/22 06:52:10;;;;;;;44.47;24.55;;;4.80;99.90;;;;;;5070403;28;20236;-76
2022/11/22 06:54:35;;;;;;;41.83;23.52;;;4.80;99.90;;;;;;5074880;28;20186;-75
2022/11/22 06:57:01;;;;;;;37.22;22.45;;;4.80;99.90;;;;;;5071862;28;20240;-76
2022/11/22 06:59:27;;;;;;;37.20;22.88;;;4.80;99.90;;;;;;5068494;28;20190;-77
2022/11/22 07:01:52;;;;;;;38.85;21.80;;;4.80;99.90;;;;;;5058188;28;20178;-82
2022/11/22 07:04:18;;;;;;;47.15;24.52;;;4.80;99.90;;;;;;5069001;28;20558;-76
2022/11/22 07:06:45;;;;;;;38.08;21.55;;;4.80;99.90;;;;;;5061619;28;20260;-75
2022/11/22 07:09:11;;;;;;;41.13;22.05;;;4.80;99.90;;;;;;5063457;28;20359;-75
2022/11/22 07:11:38;;;;;;;46.50;22.88;;;4.90;99.90;;;;;;5065532;28;20308;-75
2022/11/22 07:14:04;;;;;;;39.83;22.85;;;4.90;99.90;;;;;;5059420;28;20268;-75
2022/11/22 07:16:30;;;;;;;41.42;22.85;;;4.90;99.90;;;;;;5069458;28;20198;-77
2022/11/22 07:18:58;;;;;;;41.72;22.27;;;4.90;99.90;;;;;;5070266;28;20178;-75
2022/11/22 07:21:24;;;;;;;42.65;22.63;;;4.90;99.90;;;;;;5071914;28;20197;-76
2022/11/22 07:23:52;;;;;;;38.83;23.20;;;4.90;99.90;;;;;;5061028;28;20861;-79
2022/11/22 07:26:19;;;;;;;42.45;21.88;;;4.90;99.90;;;;;;5071696;28;20174;-78
2022/11/22 07:28:45;;;;;;;45.08;24.10;;;5.00;99.90;;;;;;5067942;28;20186;-74
2022/11/22 07:31:13;;;;;;;45.78;23.92;;;5.00;99.90;;;;;;5059120;28;20190;-77
2022/11/22 07:33:39;;;;;;;49.03;25.65;;;5.00;99.90;;;;;;5069219;28;20258;-81
2022/11/22 07:36:08;;;;;;;45.45;25.88;;;5.00;99.90;;;;;;5072811;28;20438;-74
2022/11/22 07:38:34;;;;;;;45.40;25.63;;;5.10;99.90;;;;;;5065076;28;20211;-77
2022/11/22 07:41:00;;;;;;;39.55;21.13;;;5.10;99.90;;;;;;5059367;28;20213;-80
2022/11/22 07:43:26;;;;;;;44.90;25.08;;;5.10;99.90;;;;;;5068975;28;20194;-74
2022/11/22 07:45:52;;;;;;;43.53;25.70;;;5.10;99.90;;;;;;5070279;28;20194;-75
2022/11/22 07:48:18;;;;;;;43.50;23.95;;;5.20;99.90;;;;;;5073070;28;20225;-75
2022/11/22 07:50:44;;;;;;;44.70;24.55;;;5.20;99.90;;;;;;5066682;28;20182;-80
2022/11/22 07:53:09;;;;;;;43.33;23.73;;;5.20;99.90;;;;;;5067160;28;20230;-76
2022/11/22 07:55:35;;;;;;;47.72;25.50;;;5.20;99.90;;;;;;5073282;28;20704;-75
2022/11/22 07:58:01;;;;;;;43.38;22.10;;;5.40;99.90;;;;;;5072037;28;20175;-75
2022/11/22 08:00:27;;;;;;;46.45;23.88;;;5.30;99.90;;;;;;5071101;28;20321;-75
2022/11/22 08:02:53;;;;;;;45.78;23.67;;;5.30;99.90;;;;;;5062881;28;20186;-74
2022/11/22 08:05:20;;;;;;;50.55;23.67;;;5.40;99.90;;;;;;5089325;28;20705;-76
2022/11/22 08:07:50;;;;;;;45.03;23.42;;;5.40;99.90;;;;;;5072017;28;20299;-77
2022/11/22 08:10:16;;;;;;;40.38;22.02;;;5.40;99.90;;;;;;5060576;28;20243;-81
2022/11/22 08:12:43;;;;;;;41.70;21.30;;;5.50;99.90;;;;;;5071070;28;20285;-74
2022/11/22 08:15:11;;;;;;;39.60;20.75;;;5.50;99.90;;;;;;5074758;28;20193;-74
2022/11/22 08:17:37;;;;;;;35.25;19.60;;;5.50;99.90;;;;;;5071216;28;20179;-75
2022/11/22 08:20:05;;;;;;;40.72;20.42;;;5.60;99.90;;;;;;5065869;28;20250;-75
2022/11/22 08:22:31;;;;;;;38.30;18.38;;;5.60;99.90;;;;;;5062211;28;20183;-74
2022/11/22 08:24:56;;;;;;;31.08;17.58;;;5.70;99.90;;;;;;5075201;28;20241;-75
2022/11/22 08:27:24;;;;;;;37.65;16.55;;;5.70;99.90;;;;;;5071676;28;20171;-75
2022/11/22 08:29:49;;;;;;;40.60;15.68;;;5.80;99.90;;;;;;5071177;28;20198;-78
2022/11/22 08:32:15;;;;;;;24.48;13.98;;;5.80;99.90;;;;;;5065098;28;21217;-75
2022/11/22 08:34:41;;;;;;;29.40;13.23;;;5.90;99.90;;;;;;5060334;28;20189;-80
2022/11/22 08:37:07;;;;;;;26.50;12.63;;;5.90;99.90;;;;;;5060794;28;20192;-76
2022/11/22 08:39:32;;;;;;;28.17;12.35;;;5.90;99.90;;;;;;5072373;28;20535;-77
2022/11/22 08:41:58;;;;;;;22.13;11.25;;;6.00;99.90;;;;;;5072456;28;20206;-76
2022/11/22 08:44:24;;;;;;;28.40;11.18;;;6.10;99.90;;;;;;5068417;28;20281;-81
2022/11/22 08:46:49;;;;;;;27.13;10.13;;;6.10;99.90;;;;;;5056230;28;20190;-77
2022/11/22 08:49:15;;;;;;;25.00;9.82;;;6.20;99.90;;;;;;5066190;28;20652;-76
2022/11/22 08:51:43;;;;;;;24.15;9.20;;;6.20;99.90;;;;;;5073493;28;20210;-76
2022/11/22 08:54:14;;;;;;;22.88;9.02;;;6.30;99.90;;;;;;5070161;28;20226;-75
2022/11/22 08:56:40;;;;;;;26.10;9.20;;;6.40;99.90;;;;;;5070848;28;20266;-78
2022/11/22 08:59:06;;;;;;;24.90;8.75;;;6.50;99.90;;;;;;5068044;28;20186;-76
2022/11/22 09:01:32;;;;;;;23.17;8.68;;;6.50;99.90;;;;;;5073144;28;20231;-76
2022/11/22 09:03:57;;;;;;;24.50;8.10;;;6.60;99.90;;;;;;5070608;28;20651;-77
2022/11/22 09:06:23;;;;;;;22.48;8.23;;;6.60;99.90;;;;;;5089572;28;20219;-75
2022/11/22 09:08:49;;;;;;;21.45;7.47;;;6.60;99.90;;;;;;5072863;28;20234;-84
2022/11/22 09:11:18;;;;;;;26.35;7.85;;;6.70;99.90;;;;;;5059014;28;20240;-78
2022/11/22 09:13:43;;;;;;;20.27;7.03;;;6.70;99.90;;;;;;5071794;28;20206;-76
2022/11/22 09:16:15;;;;;;;20.48;7.55;;;6.70;99.90;;;;;;5071841;28;20548;-76
2022/11/22 09:18:41;;;;;;;23.77;6.97;;;6.70;99.90;;;;;;5072188;28;20185;-76
2022/11/22 09:21:10;;;;;;;22.58;7.90;;;6.70;99.90;;;;;;5074686;28;20182;-82
2022/11/22 09:23:36;;;;;;;18.05;7.05;;;6.70;99.90;;;;;;5072114;28;20200;-77
2022/11/22 09:26:06;;;;;;;20.50;7.03;;;6.60;99.90;;;;;;5061322;28;20233;-82
2022/11/22 09:28:32;;;;;;;21.70;7.47;;;6.70;99.90;;;;;;5067124;28;20210;-75
2022/11/22 09:31:00;;;;;;;25.92;7.45;;;6.70;99.90;;;;;;5070558;28;20712;-76
2022/11/22 09:33:26;;;;;;;20.25;7.38;;;6.70;99.90;;;;;;5069924;28;20210;-74
2022/11/22 09:36:08;;;;;;;16.42;6.93;;;6.70;99.90;;;;;;5064590;28;20183;-81
2022/11/22 09:38:35;;;;;;;19.92;7.20;;;6.70;99.90;;;;;;5059914;28;20185;-75
2022/11/22 09:41:11;;;;;;;23.45;7.13;;;6.70;99.90;;;;;;5075640;28;20265;-76
2022/11/22 09:44:01;;;;;;;18.10;6.78;;;6.60;99.90;;;;;;5069410;28;20193;-76
2022/11/22 09:46:54;;;;;;;16.63;6.50;;;6.60;99.90;;;;;;5071406;28;20206;-75
2022/11/22 09:49:27;;;;;;;21.10;7.63;;;6.60;99.90;;;;;;5070743;28;20182;-76
2022/11/22 09:52:03;;;;;;;17.50;5.80;;;6.60;99.90;;;;;;5069820;28;20654;-75
2022/11/22 09:54:48;;;;;;;17.55;7.50;;;6.50;99.90;;;;;;5070962;28;20222;-74
2022/11/22 09:57:24;;;;;;;16.90;5.50;;;6.60;99.90;;;;;;5062018;28;20284;-74
2022/11/22 09:59:59;;;;;;;21.35;5.75;;;6.60;99.90;;;;;;5071426;28;20195;-74
2022/11/22 10:02:34;;;;;;;22.20;5.03;;;6.60;99.90;;;;;;5069881;28;20238;-73
2022/11/22 10:05:03;;;;;;;14.25;4.93;;;6.60;99.90;;;;;;5066590;28;20170;-78
2022/11/22 10:07:44;;;;;;;15.32;4.93;;;6.60;99.90;;;;;;5071493;28;20281;-74
2022/11/22 10:10:31;;;;;;;12.77;4.45;;;6.60;99.90;;;;;;5076233;28;20736;-75
2022/11/22 10:13:12;;;;;;;16.02;4.35;;;6.60;99.90;;;;;;5074904;28;20768;-74
2022/11/22 10:16:05;;;;;;;20.85;5.45;;;6.60;99.90;;;;;;5062347;28;20200;-78
2022/11/22 10:18:44;;;;;;;13.43;4.32;;;6.60;99.90;;;;;;5068372;28;20175;-81
2022/11/22 10:21:13;;;;;;;16.13;4.18;;;6.70;99.90;;;;;;5061946;28;20174;-75
2022/11/22 10:23:44;;;;;;;17.25;4.22;;;6.60;99.90;;;;;;5075092;28;20228;-77
2022/11/22 10:26:41;;;;;;;12.95;3.85;;;6.70;99.90;;;;;;5075786;28;20668;-81
2022/11/22 10:29:34;;;;;;;13.73;4.03;;;6.70;99.90;;;;;;5061987;28;20520;-81
2022/11/22 10:32:27;;;;;;;15.85;3.72;;;6.70;99.90;;;;;;5068033;28;20174;-84
2022/11/22 10:35:25;;;;;;;10.77;3.22;;;6.70;99.90;;;;;;5074791;28;20252;-79
2022/11/22 10:38:08;;;;;;;17.20;3.40;;;6.70;99.90;;;;;;5049655;28;20183;-77
2022/11/22 10:41:01;;;;;;;13.65;3.65;;;6.80;99.90;;;;;;5072215;28;20175;-75
2022/11/22 10:44:04;;;;;;;10.85;3.00;;;6.80;99.90;;;;;;5061217;28;20206;-79
2022/11/22 10:46:41;;;;;;;12.02;3.72;;;6.80;99.90;;;;;;5061405;28;20267;-76
2022/11/22 10:49:25;;;;;;;12.88;3.70;;;6.90;99.90;;;;;;5065605;28;20178;-80
2022/11/22 10:52:05;;;;;;;8.40;2.92;;;6.90;99.90;;;;;;5075389;28;20163;-75
2022/11/22 10:54:47;;;;;;;12.60;3.20;;;7.10;99.90;;;;;;5057894;28;20230;-77
2022/11/22 10:57:40;;;;;;;11.27;3.35;;;7.40;99.90;;;;;;5058675;28;20186;-76
2022/11/22 11:00:18;;;;;;;9.20;3.28;;;7.90;99.90;;;;;;5071005;28;20182;-75
2022/11/22 11:02:50;;;;;;;11.23;3.17;;;8.30;99.90;;;;;;5068853;28;20664;-79
2022/11/22 11:05:19;;;;;;;12.48;3.13;;;8.60;99.90;;;;;;5073290;28;20297;-75
2022/11/22 11:07:50;;;;;;;7.95;2.67;;;8.70;99.90;;;;;;5064295;28;20521;-76
2022/11/22 11:10:22;;;;;;;10.07;2.80;;;8.80;99.90;;;;;;5065467;28;20236;-75
2022/11/22 11:13:28;;;;;;;10.48;3.10;;;8.80;99.90;;;;;;5061146;28;20692;-75
2022/11/22 11:15:56;;;;;;;7.90;2.80;;;8.70;99.90;;;;;;5073393;28;20324;-75
2022/11/22 11:19:15;;;;;;;9.52;2.90;;;8.60;99.90;;;;;;5061502;28;20179;-75
2022/11/22 11:21:40;;;;;;;11.27;3.15;;;8.50;99.90;;;;;;5033717;28;20634;-76
2022/11/22 11:24:15;;;;;;;6.72;3.20;;;8.50;99.90;;;;;;5071284;28;20192;-82
2022/11/22 11:26:45;;;;;;;8.05;2.65;;;8.30;99.90;;;;;;5058806;28;20193;-75
2022/11/22 11:29:17;;;;;;;12.55;3.05;;;8.30;99.90;;;;;;5069089;28;20246;-75
2022/11/22 11:31:49;;;;;;;10.82;2.70;;;8.20;99.90;;;;;;5054574;28;20175;-75
2022/11/22 11:34:19;;;;;;;10.20;2.40;;;8.10;99.90;;;;;;5072874;28;20262;-75
2022/11/22 11:36:46;;;;;;;11.98;2.80;;;8.10;99.90;;;;;;5061500;28;20203;-77
2022/11/22 11:39:26;;;;;;;12.55;2.75;;;8.00;99.90;;;;;;5072211;28;20190;-75
2022/11/22 11:41:52;;;;;;;8.30;2.75;;;8.00;99.90;;;;;;5060200;28;20531;-76
2022/11/22 11:44:30;;;;;;;12.95;2.65;;;8.00;99.90;;;;;;5069346;28;20190;-79
2022/11/22 11:46:59;;;;;;;9.70;3.33;;;8.00;99.90;;;;;;5061948;28;20186;-77
2022/11/22 11:49:31;;;;;;;12.38;3.03;;;7.90;99.90;;;;;;5064658;28;20181;-80
2022/11/22 11:52:07;;;;;;;8.73;2.97;;;7.80;99.90;;;;;;5070576;28;20202;-77
2022/11/22 11:54:39;;;;;;;9.07;2.72;;;7.90;99.90;;;;;;5069830;28;20680;-75
2022/11/22 11:57:10;;;;;;;9.90;2.92;;;7.90;99.90;;;;;;5088847;28;20621;-79
2022/11/22 11:59:36;;;;;;;9.48;2.72;;;7.90;99.90;;;;;;5066524;28;20215;-77
2022/11/22 12:02:18;;;;;;;12.07;3.00;;;7.90;99.90;;;;;;5058625;28;20179;-75
2022/11/22 12:05:02;;;;;;;8.02;2.65;;;7.90;99.90;;;;;;5074231;28;20166;-76
2022/11/22 12:07:48;;;;;;;7.43;2.47;;;7.90;99.90;;;;;;5060917;28;20232;-77
2022/11/22 12:10:44;;;;;;;14.27;2.70;;;8.00;99.90;;;;;;5067101;28;20514;-75
2022/11/22 12:13:23;;;;;;;12.35;3.33;;;8.10;99.90;;;;;;5085005;28;20278;-76
2022/11/22 12:16:23;;;;;;;11.88;2.88;;;8.10;99.90;;;;;;5064586;28;20634;-76
2022/11/22 12:18:58;;;;;;;11.25;3.00;;;8.20;99.90;;;;;;5067166;28;20177;-76
2022/11/22 12:21:48;;;;;;;8.98;2.85;;;8.20;99.90;;;;;;5074365;28;20257;-79
2022/11/22 12:24:14;;;;;;;8.43;2.58;;;8.30;99.90;;;;;;5070873;28;20759;-77
2022/11/22 12:26:40;;;;;;;7.03;2.55;;;8.40;99.90;;;;;;5062532;28;20193;-78
2022/11/22 12:29:11;;;;;;;10.43;2.90;;;8.40;99.90;;;;;;5059394;28;20668;-75
2022/11/22 12:31:47;;;;;;;10.80;2.30;;;8.60;99.90;;;;;;5073325;28;20174;-77
2022/11/22 12:34:32;;;;;;;11.02;3.00;;;8.60;99.90;;;;;;5057561;28;20274;-77
2022/11/22 12:37:15;;;;;;;12.38;2.72;;;8.50;99.90;;;;;;5057156;28;20178;-76
2022/11/22 12:39:47;;;;;;;8.80;2.70;;;8.50;99.90;;;;;;5064479;28;21263;-78
2022/11/22 12:42:20;;;;;;;10.95;2.92;;;8.50;99.90;;;;;;5069218;28;20182;-78
2022/11/22 12:44:52;;;;;;;14.30;2.60;;;8.50;99.90;;;;;;5073589;28;20167;-77
2022/11/22 12:47:23;;;;;;;9.27;2.50;;;8.50;99.90;;;;;;5071141;28;20183;-76
2022/11/22 12:49:58;;;;;;;9.80;2.30;;;8.40;99.90;;;;;;5059697;28;20689;-75
2022/11/22 12:52:28;;;;;;;10.35;2.47;;;8.40;99.90;;;;;;5061884;28;20672;-79
2022/11/22 12:55:14;;;;;;;9.88;3.28;;;8.40;99.90;;;;;;5074679;28;20226;-78
2022/11/22 12:58:02;;;;;;;9.77;2.85;;;8.30;99.90;;;;;;5066297;28;20180;-79
2022/11/22 13:00:33;;;;;;;5.93;2.30;;;8.30;99.90;;;;;;5063821;28;20178;-80
2022/11/22 13:03:29;;;;;;;7.32;2.35;;;8.30;99.90;;;;;;5087086;28;20181;-75
2022/11/22 13:05:58;;;;;;;6.03;2.47;;;8.30;99.90;;;;;;5082425;28;20653;-75
2022/11/22 13:08:54;;;;;;;10.57;2.50;;;8.20;99.90;;;;;;5091787;28;20231;-75